CheckWX is a tool to help pilots better visualize weather data.  It is not intended as a substitute for an official pre-flight weather briefing.

06:21:09 UTC

KLSE METAR
La Crosse Regional Airport
La Crosse, Wisconsin, USA
Current

28 mins ago

KLSE 270553Z AUTO 11004KT 10SM CLR 16/11 A3001 RMK AO2 SLP158 T01560111 10250 20144 402500111 58005
Observed
May-27 @ 05:53 UTC
Wind
  • 110° at 4 KTS
Visibility
10 SM
Flight Rules
VFR
Cloud Levels
  • Clear skies
Temperature
16°C / 61°F
Dewpoint
11°C / 52°F
Humidity
72%
Altimeter
30.01" Hg
Pressure
1016.22 hPa
Previous

1 hour ago

KLSE 270453Z AUTO 00000KT 10SM CLR 17/11 A3002 RMK AO2 SLP159 T01670111
Observed
May-27 @ 04:53 UTC
Visibility
10 SM
Flight Rules
VFR
Cloud Levels
  • Clear skies
Temperature
17°C / 63°F
Dewpoint
11°C / 52°F
Humidity
68%
Altimeter
30.02" Hg
Pressure
1016.62 hPa
Previous

2 hours ago

KLSE 270353Z AUTO 00000KT 10SM CLR 16/11 A3004 RMK AO2 SLP169 T01560106
Observed
May-27 @ 03:53 UTC
Visibility
10 SM
Flight Rules
VFR
Cloud Levels
  • Clear skies
Temperature
16°C / 61°F
Dewpoint
11°C / 52°F
Humidity
72%
Altimeter
30.04" Hg
Pressure
1017.32 hPa